createdAt,value
2022-08-30T00:01:05.343Z,16.50
2022-08-30T00:03:41.193Z,16.50
2022-08-30T00:06:09.621Z,16.60
2022-08-30T00:08:37.634Z,16.50
2022-08-30T00:11:06.392Z,16.40
2022-08-30T00:13:33.414Z,16.40
2022-08-30T00:16:00.419Z,16.40
2022-08-30T00:18:28.132Z,16.40
2022-08-30T00:20:55.918Z,16.30
2022-08-30T00:23:23.445Z,16.30
2022-08-30T00:25:50.496Z,16.30
2022-08-30T00:28:17.502Z,16.30
2022-08-30T00:30:45.565Z,16.20
2022-08-30T00:33:13.877Z,16.20
2022-08-30T00:35:41.747Z,16.20
2022-08-30T00:38:10.169Z,16.10
2022-08-30T00:40:41.791Z,16.10
2022-08-30T00:43:14.795Z,16.00
2022-08-30T00:45:41.897Z,16.00
2022-08-30T00:48:09.026Z,16.00
2022-08-30T00:51:00.565Z,15.90
2022-08-30T00:53:32.057Z,15.90
2022-08-30T00:56:00.569Z,15.90
2022-08-30T00:58:32.150Z,15.90
2022-08-30T01:01:00.746Z,15.80
2022-08-30T01:03:28.679Z,15.90
2022-08-30T01:05:57.736Z,15.90
2022-08-30T01:08:24.903Z,15.90
2022-08-30T01:10:54.956Z,15.90
2022-08-30T01:13:23.781Z,15.90
2022-08-30T01:15:51.553Z,15.80
2022-08-30T01:18:21.315Z,15.80
2022-08-30T01:20:58.293Z,15.80
2022-08-30T01:23:27.356Z,15.80
2022-08-30T01:25:55.352Z,15.70
2022-08-30T01:28:25.891Z,15.60
2022-08-30T01:30:53.539Z,15.70
2022-08-30T01:33:22.075Z,15.70
2022-08-30T01:36:01.591Z,15.60
2022-08-30T01:38:34.511Z,15.70
2022-08-30T01:41:13.362Z,15.60
2022-08-30T01:43:41.108Z,15.70
2022-08-30T01:46:11.169Z,15.60
2022-08-30T01:48:39.562Z,15.60
2022-08-30T01:51:09.441Z,15.70
2022-08-30T01:53:36.431Z,15.70
2022-08-30T01:56:03.637Z,15.60
2022-08-30T01:58:30.677Z,15.60
2022-08-30T02:00:58.043Z,15.50
2022-08-30T02:03:30.434Z,15.50
2022-08-30T02:05:57.685Z,15.50
2022-08-30T02:08:24.732Z,15.50
2022-08-30T02:10:54.539Z,15.50
2022-08-30T02:13:21.550Z,15.50
2022-08-30T02:15:48.731Z,15.40
2022-08-30T02:18:15.675Z,15.40
2022-08-30T02:20:42.835Z,15.30
2022-08-30T02:23:09.866Z,15.30
2022-08-30T02:25:36.887Z,15.30
2022-08-30T02:28:05.017Z,15.30
2022-08-30T02:30:33.918Z,15.30
2022-08-30T02:33:01.123Z,15.30
2022-08-30T02:35:28.255Z,15.30
2022-08-30T02:37:55.227Z,15.30
2022-08-30T02:40:22.505Z,15.30
2022-08-30T02:42:49.671Z,15.30
2022-08-30T02:45:16.699Z,15.30
2022-08-30T02:47:47.065Z,15.30
2022-08-30T02:50:15.309Z,15.30
2022-08-30T02:52:42.687Z,15.30
2022-08-30T02:55:12.289Z,15.40
2022-08-30T02:57:39.237Z,15.30
2022-08-30T03:00:08.303Z,15.30
2022-08-30T03:02:35.549Z,15.20
2022-08-30T03:05:03.287Z,15.20
2022-08-30T03:07:31.563Z,15.10
2022-08-30T03:09:58.551Z,15.10
2022-08-30T03:12:25.523Z,15.10
2022-08-30T03:14:52.630Z,15.10
2022-08-30T03:17:19.654Z,15.10
2022-08-30T03:19:46.715Z,15.20
2022-08-30T03:22:13.830Z,15.20
2022-08-30T03:24:40.958Z,15.10
2022-08-30T03:27:08.144Z,15.00
2022-08-30T03:29:35.374Z,15.00
2022-08-30T03:32:02.534Z,15.00
2022-08-30T03:34:29.585Z,15.00
2022-08-30T03:36:56.824Z,15.00
2022-08-30T03:39:24.774Z,15.00
2022-08-30T03:41:52.259Z,14.90
2022-08-30T03:44:19.843Z,14.90
2022-08-30T03:46:47.714Z,14.90
2022-08-30T03:49:15.374Z,14.80
2022-08-30T03:51:42.690Z,14.80
2022-08-30T03:54:10.091Z,14.70
2022-08-30T03:56:37.269Z,14.70
2022-08-30T03:59:04.892Z,14.60
2022-08-30T04:01:32.464Z,14.70
2022-08-30T04:03:59.675Z,14.60
2022-08-30T04:06:27.399Z,14.60
2022-08-30T04:08:55.166Z,14.60
2022-08-30T04:11:22.104Z,14.60
2022-08-30T04:13:51.832Z,14.70
2022-08-30T04:16:20.063Z,14.70
2022-08-30T04:18:47.512Z,14.70
2022-08-30T04:21:15.769Z,14.70
2022-08-30T04:23:43.649Z,14.60
2022-08-30T04:26:11.000Z,14.60
2022-08-30T04:28:38.084Z,14.50
2022-08-30T04:31:16.564Z,14.60
2022-08-30T04:33:44.602Z,14.60
2022-08-30T04:36:13.741Z,14.60
2022-08-30T04:38:42.098Z,14.60
2022-08-30T04:41:18.881Z,14.60
2022-08-30T04:43:47.747Z,14.60
2022-08-30T04:46:15.001Z,14.50
2022-08-30T04:48:42.968Z,14.60
2022-08-30T04:51:14.196Z,14.50
2022-08-30T04:53:42.716Z,14.60
2022-08-30T04:56:12.591Z,14.50
2022-08-30T04:58:39.641Z,14.50
2022-08-30T05:01:32.129Z,14.50
2022-08-30T05:04:11.680Z,14.50
2022-08-30T05:06:38.789Z,14.50
2022-08-30T05:09:05.919Z,14.60
2022-08-30T05:11:33.196Z,14.60
2022-08-30T05:14:00.237Z,14.60
2022-08-30T05:16:27.602Z,14.60
2022-08-30T05:18:54.930Z,14.50
2022-08-30T05:21:25.656Z,14.60
2022-08-30T05:23:59.886Z,14.50
2022-08-30T05:26:30.573Z,14.50
2022-08-30T05:28:58.230Z,14.50
2022-08-30T05:31:31.777Z,14.50
2022-08-30T05:33:59.619Z,14.60
2022-08-30T05:36:29.241Z,14.60
2022-08-30T05:38:57.105Z,14.60
2022-08-30T05:41:26.688Z,14.60
2022-08-30T05:43:59.621Z,14.60
2022-08-30T05:46:29.817Z,14.70
2022-08-30T05:48:57.123Z,14.80
2022-08-30T05:51:26.463Z,14.90
2022-08-30T05:53:55.018Z,14.80
2022-08-30T05:56:31.785Z,15.00
2022-08-30T05:58:59.970Z,15.10
2022-08-30T06:01:30.245Z,15.20
2022-08-30T06:04:02.998Z,15.20
2022-08-30T06:06:32.915Z,15.20
2022-08-30T06:08:59.904Z,15.30
2022-08-30T06:11:27.088Z,15.30
2022-08-30T06:13:55.069Z,15.40
2022-08-30T06:16:24.372Z,15.40
2022-08-30T06:18:52.610Z,15.50
2022-08-30T06:21:25.303Z,15.60
2022-08-30T06:23:52.967Z,15.60
2022-08-30T06:26:20.464Z,15.80
2022-08-30T06:28:47.470Z,15.80
2022-08-30T06:31:17.439Z,15.90
2022-08-30T06:33:45.187Z,15.90
2022-08-30T06:36:22.746Z,16.00
2022-08-30T06:38:52.166Z,16.10
2022-08-30T06:41:22.376Z,16.10
2022-08-30T06:43:49.504Z,16.20
2022-08-30T06:46:21.023Z,16.30
2022-08-30T06:48:48.733Z,16.30
2022-08-30T06:51:19.998Z,16.40
2022-08-30T06:53:47.091Z,16.50
2022-08-30T06:56:16.654Z,16.50
2022-08-30T06:58:44.637Z,16.50
2022-08-30T07:01:17.393Z,16.50
2022-08-30T07:03:44.859Z,16.60
2022-08-30T07:06:13.540Z,16.70
2022-08-30T07:08:41.610Z,16.60
2022-08-30T07:11:09.189Z,16.70
2022-08-30T07:13:37.614Z,16.80
2022-08-30T07:16:12.791Z,16.70
2022-08-30T07:18:54.810Z,16.80
2022-08-30T07:21:34.482Z,16.90
2022-08-30T07:24:02.330Z,17.00
2022-08-30T07:26:52.094Z,17.00
2022-08-30T07:29:21.427Z,17.10
2022-08-30T07:31:48.494Z,17.10
2022-08-30T07:34:15.540Z,17.30
2022-08-30T07:36:42.566Z,17.30
2022-08-30T07:39:09.895Z,17.40
2022-08-30T07:41:41.090Z,17.50
2022-08-30T07:44:09.065Z,17.50
2022-08-30T07:46:39.739Z,17.50
2022-08-30T07:49:11.256Z,17.60
2022-08-30T07:51:39.565Z,17.60
2022-08-30T07:54:07.135Z,17.60
2022-08-30T07:56:35.281Z,17.60
2022-08-30T07:59:02.411Z,17.60
2022-08-30T08:01:29.448Z,17.70
2022-08-30T08:03:56.679Z,17.60
2022-08-30T08:06:24.816Z,17.70
2022-08-30T08:08:51.883Z,17.70
2022-08-30T08:11:24.454Z,17.70
2022-08-30T08:13:53.992Z,17.80
2022-08-30T08:16:23.864Z,17.70
2022-08-30T08:18:51.826Z,17.70
2022-08-30T08:21:18.830Z,17.70
2022-08-30T08:23:45.784Z,17.60
2022-08-30T08:26:13.078Z,17.70
2022-08-30T08:28:41.695Z,17.60
2022-08-30T08:31:17.924Z,17.70
2022-08-30T08:33:45.207Z,17.60
2022-08-30T08:36:12.394Z,17.60
2022-08-30T08:38:39.603Z,17.60
2022-08-30T08:41:42.094Z,17.60
2022-08-30T08:44:44.992Z,17.60
2022-08-30T08:47:23.893Z,17.60
2022-08-30T08:49:56.030Z,17.60
2022-08-30T08:52:53.503Z,17.60
2022-08-30T08:55:22.851Z,17.60
2022-08-30T08:57:52.380Z,17.70
2022-08-30T09:00:19.794Z,17.70
2022-08-30T09:02:56.995Z,17.70
2022-08-30T09:05:27.754Z,17.70
2022-08-30T09:08:04.565Z,17.80
2022-08-30T09:10:50.077Z,17.70
2022-08-30T09:13:19.142Z,17.70
2022-08-30T09:15:48.971Z,17.80
2022-08-30T09:18:20.044Z,17.80
2022-08-30T09:20:51.684Z,17.80
2022-08-30T09:23:18.583Z,17.80
2022-08-30T09:25:59.713Z,17.90
2022-08-30T09:28:35.482Z,17.90
2022-08-30T09:31:21.582Z,17.90
2022-08-30T09:34:15.516Z,17.90
2022-08-30T09:36:51.922Z,18.00
2022-08-30T09:39:38.131Z,17.90
2022-08-30T09:42:25.402Z,17.90
2022-08-30T09:44:54.098Z,18.10
2022-08-30T09:47:27.611Z,18.00
2022-08-30T09:50:24.103Z,18.10
2022-08-30T09:53:16.159Z,18.10
2022-08-30T09:56:34.911Z,18.20
2022-08-30T09:59:11.574Z,18.20
2022-08-30T10:02:06.316Z,18.30
2022-08-30T10:05:30.843Z,18.40
2022-08-30T10:08:14.914Z,18.30
2022-08-30T10:11:05.621Z,18.40
2022-08-30T10:14:09.688Z,18.50
2022-08-30T10:16:39.640Z,18.50
2022-08-30T10:19:25.213Z,18.50
2022-08-30T10:21:58.198Z,18.60
2022-08-30T10:24:33.846Z,18.60
2022-08-30T10:27:13.010Z,18.70
2022-08-30T10:30:08.227Z,18.70
2022-08-30T10:32:49.880Z,18.70
2022-08-30T10:35:36.865Z,18.80
2022-08-30T10:38:30.782Z,18.90
2022-08-30T10:41:27.905Z,18.90
2022-08-30T10:44:12.182Z,19.00
2022-08-30T10:47:00.543Z,19.10
2022-08-30T10:49:37.427Z,19.20
2022-08-30T10:52:23.444Z,19.20
2022-08-30T10:55:15.014Z,19.20
2022-08-30T10:57:42.995Z,19.30
2022-08-30T11:00:15.620Z,19.40
2022-08-30T11:02:52.495Z,19.40
2022-08-30T11:05:43.604Z,19.50
2022-08-30T11:08:20.339Z,19.40
2022-08-30T11:11:05.450Z,19.50
2022-08-30T11:13:35.527Z,19.50
2022-08-30T11:16:06.512Z,19.60
2022-08-30T11:18:45.147Z,19.60
2022-08-30T11:21:36.866Z,19.60
2022-08-30T11:24:12.142Z,19.70
2022-08-30T11:26:46.009Z,19.70
2022-08-30T11:29:52.077Z,19.70
2022-08-30T11:32:25.778Z,19.80
2022-08-30T11:34:59.471Z,19.90
2022-08-30T11:37:39.598Z,19.80
2022-08-30T11:40:13.357Z,19.90
2022-08-30T11:42:48.026Z,20.00
2022-08-30T11:45:26.868Z,20.00
2022-08-30T11:47:55.250Z,20.10
2022-08-30T11:51:00.358Z,20.10
2022-08-30T11:53:52.817Z,20.20
2022-08-30T11:56:28.446Z,20.20
2022-08-30T11:59:18.409Z,20.30
2022-08-30T12:01:50.957Z,20.30
2022-08-30T12:04:19.810Z,20.40
2022-08-30T12:06:51.955Z,20.40
2022-08-30T12:09:25.293Z,20.40
2022-08-30T12:11:59.949Z,20.40
2022-08-30T12:14:41.048Z,20.40
2022-08-30T12:17:36.711Z,20.50
2022-08-30T12:20:11.584Z,20.50
2022-08-30T12:22:40.774Z,20.50
2022-08-30T12:25:25.315Z,20.50
2022-08-30T12:28:22.291Z,20.60
2022-08-30T12:30:50.525Z,20.50
2022-08-30T12:33:29.079Z,20.50
2022-08-30T12:35:59.509Z,20.50
2022-08-30T12:38:30.325Z,20.60
2022-08-30T12:41:02.586Z,20.60
2022-08-30T12:43:41.387Z,20.70
2022-08-30T12:46:15.333Z,20.60
2022-08-30T12:48:44.786Z,20.70
2022-08-30T12:51:29.703Z,20.80
2022-08-30T12:54:05.609Z,20.80
2022-08-30T12:56:53.151Z,20.90
2022-08-30T12:59:54.068Z,20.90
2022-08-30T13:02:28.676Z,21.00
2022-08-30T13:04:56.933Z,21.10
2022-08-30T13:07:36.043Z,21.00
2022-08-30T13:10:20.073Z,21.00
2022-08-30T13:13:05.489Z,21.00
2022-08-30T13:15:35.899Z,21.00
2022-08-30T13:18:27.837Z,21.10
2022-08-30T13:21:23.349Z,21.10
2022-08-30T13:23:57.252Z,21.10
2022-08-30T13:26:24.550Z,21.10
2022-08-30T13:29:00.377Z,21.10
2022-08-30T13:31:30.140Z,21.10
2022-08-30T13:33:58.570Z,21.20
2022-08-30T13:36:33.023Z,21.20
2022-08-30T13:39:01.826Z,21.20
2022-08-30T13:41:34.526Z,21.20
2022-08-30T13:44:13.199Z,21.20
2022-08-30T13:46:44.777Z,21.20
2022-08-30T13:49:46.602Z,21.20
2022-08-30T13:52:21.322Z,21.20
2022-08-30T13:54:51.127Z,21.20
2022-08-30T14:00:12.260Z,21.30
2022-08-30T14:02:46.309Z,21.20
2022-08-30T14:05:37.467Z,21.30
2022-08-30T14:08:02.538Z,21.20
2022-08-30T14:10:31.511Z,21.20
2022-08-30T14:13:08.045Z,21.10
2022-08-30T14:15:38.917Z,21.20
2022-08-30T14:18:07.777Z,21.10
2022-08-30T14:20:38.751Z,21.10
2022-08-30T14:23:07.608Z,21.10
2022-08-30T14:25:40.811Z,21.10
2022-08-30T14:28:09.616Z,21.20
2022-08-30T14:30:39.153Z,21.20
2022-08-30T14:33:06.556Z,21.20
2022-08-30T14:35:33.837Z,21.30
2022-08-30T14:38:00.797Z,21.30
2022-08-30T14:40:28.477Z,21.30
2022-08-30T14:42:55.521Z,21.40
2022-08-30T14:45:22.695Z,21.50
2022-08-30T14:47:50.661Z,21.50
2022-08-30T14:50:17.722Z,21.50
2022-08-30T14:52:45.239Z,21.50
2022-08-30T14:55:13.140Z,21.50
2022-08-30T14:57:40.559Z,21.50
2022-08-30T15:00:11.137Z,21.50
2022-08-30T15:02:38.135Z,21.50
2022-08-30T15:05:06.862Z,21.30
2022-08-30T15:07:46.442Z,21.20
2022-08-30T15:10:18.238Z,21.20
2022-08-30T15:12:49.673Z,21.10
2022-08-30T15:15:21.153Z,21.00
2022-08-30T15:17:49.711Z,21.00
2022-08-30T15:20:20.866Z,21.00
2022-08-30T15:22:48.409Z,21.10
2022-08-30T15:25:20.700Z,21.00
2022-08-30T15:27:49.221Z,21.00
2022-08-30T15:30:16.234Z,20.90
2022-08-30T15:32:47.163Z,20.90
2022-08-30T15:35:14.043Z,20.90
2022-08-30T15:37:47.361Z,20.90
2022-08-30T15:40:14.714Z,20.80
2022-08-30T15:42:42.326Z,20.90
2022-08-30T15:45:10.005Z,20.80
2022-08-30T15:47:38.168Z,20.80
2022-08-30T15:50:06.844Z,20.80
2022-08-30T15:52:33.867Z,20.80
2022-08-30T15:55:00.821Z,20.80
2022-08-30T15:57:27.876Z,20.80
2022-08-30T15:59:55.596Z,20.80
2022-08-30T16:02:27.538Z,20.70
2022-08-30T16:04:55.028Z,20.70
2022-08-30T16:07:21.971Z,20.70
2022-08-30T16:09:48.888Z,20.70
2022-08-30T16:12:22.585Z,20.70
2022-08-30T16:14:51.469Z,20.70
2022-08-30T16:17:18.668Z,20.80
2022-08-30T16:19:45.634Z,20.80
2022-08-30T16:22:12.675Z,20.80
2022-08-30T16:24:43.728Z,20.70
2022-08-30T16:27:13.713Z,20.80
2022-08-30T16:29:41.057Z,20.80
2022-08-30T16:32:08.294Z,20.80
2022-08-30T16:34:35.846Z,20.80
2022-08-30T16:37:04.315Z,20.70
2022-08-30T16:39:32.510Z,20.80
2022-08-30T16:42:03.117Z,20.80
2022-08-30T16:44:30.431Z,20.70
2022-08-30T16:46:57.629Z,20.70
2022-08-30T16:49:25.545Z,20.70
2022-08-30T16:51:53.411Z,20.70
2022-08-30T16:54:20.635Z,20.70
2022-08-30T16:56:47.605Z,20.70
2022-08-30T16:59:14.880Z,20.70
2022-08-30T17:01:44.891Z,20.80
2022-08-30T17:04:12.980Z,20.70
2022-08-30T17:06:42.978Z,20.70
2022-08-30T17:09:10.896Z,20.70
2022-08-30T17:11:40.210Z,20.70
2022-08-30T17:14:08.303Z,20.80
2022-08-30T17:16:36.074Z,20.70
2022-08-30T17:19:05.855Z,20.80
2022-08-30T17:21:34.049Z,20.70
2022-08-30T17:24:02.956Z,20.70
2022-08-30T17:26:36.058Z,20.70
2022-08-30T17:29:04.592Z,20.70
2022-08-30T17:31:31.851Z,20.70
2022-08-30T17:34:03.212Z,20.60
2022-08-30T17:36:32.914Z,20.60
2022-08-30T17:39:10.343Z,20.60
2022-08-30T17:41:45.364Z,20.50
2022-08-30T17:44:19.766Z,20.50
2022-08-30T17:46:46.977Z,20.60
2022-08-30T17:49:15.078Z,20.60
2022-08-30T17:51:44.584Z,20.50
2022-08-30T17:54:13.040Z,20.50
2022-08-30T17:56:41.706Z,20.50
2022-08-30T17:59:11.437Z,20.50
2022-08-30T18:01:41.738Z,20.40
2022-08-30T18:04:10.018Z,20.50
2022-08-30T18:06:37.285Z,20.50
2022-08-30T18:09:08.397Z,20.40
2022-08-30T18:11:39.479Z,20.40
2022-08-30T18:14:08.088Z,20.40
2022-08-30T18:16:39.077Z,20.40
2022-08-30T18:19:17.483Z,20.40
2022-08-30T18:21:44.579Z,20.40
2022-08-30T18:24:12.743Z,20.30
2022-08-30T18:26:42.927Z,20.30
2022-08-30T18:29:10.880Z,20.30
2022-08-30T18:31:37.898Z,20.30
2022-08-30T18:34:04.942Z,20.30
2022-08-30T18:36:32.125Z,20.20
2022-08-30T18:38:59.424Z,20.20
2022-08-30T18:41:26.685Z,20.20
2022-08-30T18:44:11.068Z,20.10
2022-08-30T18:46:56.455Z,20.20
2022-08-30T18:49:32.175Z,20.20
2022-08-30T18:52:01.030Z,20.10
2022-08-30T18:54:29.029Z,20.10
2022-08-30T18:56:55.984Z,20.10
2022-08-30T18:59:23.302Z,20.10
2022-08-30T19:02:02.930Z,20.10
2022-08-30T19:04:35.726Z,20.00
2022-08-30T19:07:05.395Z,20.10
2022-08-30T19:09:32.819Z,20.00
2022-08-30T19:11:59.738Z,19.90
2022-08-30T19:14:27.930Z,20.00
2022-08-30T19:16:56.271Z,19.90
2022-08-30T19:19:23.911Z,19.90
2022-08-30T19:21:51.886Z,19.90
2022-08-30T19:24:19.992Z,19.90
2022-08-30T19:26:47.729Z,19.90
2022-08-30T19:29:15.297Z,19.90
2022-08-30T19:31:43.974Z,19.90
2022-08-30T19:34:11.524Z,19.80
2022-08-30T19:36:39.329Z,19.70
2022-08-30T19:39:07.501Z,19.70
2022-08-30T19:41:34.531Z,19.60
2022-08-30T19:44:03.384Z,19.60
2022-08-30T19:46:32.485Z,19.50
2022-08-30T19:49:01.243Z,19.40
2022-08-30T19:51:28.325Z,19.40
2022-08-30T19:53:56.356Z,19.30
2022-08-30T19:56:26.492Z,19.30
2022-08-30T19:58:53.643Z,19.20
2022-08-30T20:01:32.296Z,19.20
2022-08-30T20:04:02.311Z,19.20
2022-08-30T20:06:30.595Z,19.10
2022-08-30T20:08:58.529Z,19.10
2022-08-30T20:11:28.994Z,19.00
2022-08-30T20:13:56.842Z,19.00
2022-08-30T20:16:28.393Z,19.00
2022-08-30T20:19:04.846Z,19.00
2022-08-30T20:21:33.444Z,19.00
2022-08-30T20:24:01.321Z,19.00
2022-08-30T20:26:33.869Z,19.10
2022-08-30T20:29:02.676Z,19.00
2022-08-30T20:31:29.784Z,19.00
2022-08-30T20:33:57.085Z,19.10
2022-08-30T20:36:24.082Z,19.00
2022-08-30T20:38:51.190Z,19.00
2022-08-30T20:41:19.107Z,19.10
2022-08-30T20:43:46.996Z,19.10
2022-08-30T20:46:18.315Z,19.10
2022-08-30T20:48:46.443Z,19.10
2022-08-30T20:51:19.816Z,19.10
2022-08-30T20:53:47.042Z,19.10
2022-08-30T20:56:17.178Z,19.20
2022-08-30T20:58:45.143Z,19.10
2022-08-30T21:01:13.503Z,19.20
2022-08-30T21:03:41.633Z,19.10
2022-08-30T21:06:09.034Z,19.20
2022-08-30T21:08:36.033Z,19.10
2022-08-30T21:11:03.033Z,19.20
2022-08-30T21:13:30.417Z,19.10
2022-08-30T21:16:03.767Z,19.20
2022-08-30T21:18:33.992Z,19.10
2022-08-30T21:21:12.291Z,19.20
2022-08-30T21:23:39.384Z,19.10
2022-08-30T21:26:07.535Z,19.10
2022-08-30T21:28:35.249Z,19.10
2022-08-30T21:31:11.381Z,19.10
2022-08-30T21:33:39.011Z,19.10
2022-08-30T21:36:26.060Z,19.20
2022-08-30T21:38:53.635Z,19.10
2022-08-30T21:41:26.916Z,19.20
2022-08-30T21:43:59.243Z,19.10
2022-08-30T21:46:28.035Z,19.10
2022-08-30T21:48:56.990Z,19.10
2022-08-30T21:51:23.982Z,19.10
2022-08-30T21:53:51.444Z,19.10
2022-08-30T21:56:22.026Z,19.20
2022-08-30T21:58:50.050Z,19.10
2022-08-30T22:01:23.720Z,19.10
2022-08-30T22:03:55.803Z,19.10
2022-08-30T22:06:25.214Z,19.10
2022-08-30T22:09:01.602Z,19.10
2022-08-30T22:11:31.639Z,19.10
2022-08-30T22:13:59.325Z,19.10
2022-08-30T22:16:28.673Z,19.00
2022-08-30T22:18:56.095Z,19.10
2022-08-30T22:21:26.389Z,19.10
2022-08-30T22:23:55.077Z,19.00
2022-08-30T22:26:23.917Z,19.00
2022-08-30T22:28:52.579Z,19.10
2022-08-30T22:31:21.095Z,19.00
2022-08-30T22:33:49.732Z,19.00
2022-08-30T22:36:32.829Z,19.00
2022-08-30T22:39:01.396Z,19.00
2022-08-30T22:41:31.395Z,19.00
2022-08-30T22:43:58.811Z,18.90
2022-08-30T22:46:33.620Z,18.90
2022-08-30T22:49:02.406Z,18.90
2022-08-30T22:51:29.819Z,18.90
2022-08-30T22:53:56.999Z,18.90
2022-08-30T22:56:25.762Z,18.80
2022-08-30T22:58:54.457Z,18.80
2022-08-30T23:01:25.015Z,18.80
2022-08-30T23:03:53.258Z,18.90
2022-08-30T23:06:20.792Z,18.80
2022-08-30T23:08:47.897Z,18.80
2022-08-30T23:11:15.816Z,18.80
2022-08-30T23:13:44.073Z,18.80
2022-08-30T23:16:12.541Z,18.90
2022-08-30T23:18:42.874Z,18.80
2022-08-30T23:21:16.119Z,18.90
2022-08-30T23:24:02.108Z,18.80
2022-08-30T23:26:47.768Z,18.80
2022-08-30T23:29:33.521Z,18.90
2022-08-30T23:32:19.273Z,18.80
2022-08-30T23:35:04.932Z,18.80
2022-08-30T23:37:53.035Z,18.80
2022-08-30T23:40:40.523Z,18.80
2022-08-30T23:43:27.219Z,18.80
2022-08-30T23:46:16.987Z,18.80
2022-08-30T23:49:06.735Z,18.80
2022-08-30T23:51:53.506Z,18.80
2022-08-30T23:54:39.144Z,18.80
2022-08-30T23:57:25.778Z,18.80
